sensor_id;sensor_type;location;lat;lon;timestamp;temperature;humidity
32348;DHT22;18821;44.800;10.326;2023-05-09T00:00:18;17.90;1.00
32348;DHT22;18821;44.800;10.326;2023-05-09T00:02:44;17.90;1.00
32348;DHT22;18821;44.800;10.326;2023-05-09T00:05:11;17.90;1.00
32348;DHT22;18821;44.800;10.326;2023-05-09T00:07:37;17.90;1.00
32348;DHT22;18821;44.800;10.326;2023-05-09T00:10:03;17.80;1.00
32348;DHT22;18821;44.800;10.326;2023-05-09T00:12:29;17.90;1.00
32348;DHT22;18821;44.800;10.326;2023-05-09T00:14:56;17.90;1.00
32348;DHT22;18821;44.800;10.326;2023-05-09T00:17:23;17.90;1.00
32348;DHT22;18821;44.800;10.326;2023-05-09T00:19:49;17.90;1.00
32348;DHT22;18821;44.800;10.326;2023-05-09T00:22:16;17.90;1.00
32348;DHT22;18821;44.800;10.326;2023-05-09T00:24:43;17.90;1.00
32348;DHT22;18821;44.800;10.326;2023-05-09T00:27:09;17.90;1.00
32348;DHT22;18821;44.800;10.326;2023-05-09T00:29:35;17.90;1.00
32348;DHT22;18821;44.800;10.326;2023-05-09T00:32:01;17.90;1.00
32348;DHT22;18821;44.800;10.326;2023-05-09T00:34:27;17.90;1.00
32348;DHT22;18821;44.800;10.326;2023-05-09T00:36:53;18.00;1.00
32348;DHT22;18821;44.800;10.326;2023-05-09T00:39:19;17.90;1.00
32348;DHT22;18821;44.800;10.326;2023-05-09T00:41:45;17.90;1.00
32348;DHT22;18821;44.800;10.326;2023-05-09T00:44:11;17.80;1.00
32348;DHT22;18821;44.800;10.326;2023-05-09T00:46:38;17.70;1.00
32348;DHT22;18821;44.800;10.326;2023-05-09T00:49:04;17.70;1.00
32348;DHT22;18821;44.800;10.326;2023-05-09T00:51:31;17.60;1.00
32348;DHT22;18821;44.800;10.326;2023-05-09T00:53:57;17.60;1.00
32348;DHT22;18821;44.800;10.326;2023-05-09T00:56:24;17.60;1.00
32348;DHT22;18821;44.800;10.326;2023-05-09T00:58:50;17.50;4.10
32348;DHT22;18821;44.800;10.326;2023-05-09T01:01:16;17.50;3.30
32348;DHT22;18821;44.800;10.326;2023-05-09T01:03:42;17.50;2.70
32348;DHT22;18821;44.800;10.326;2023-05-09T01:11:27;17.40;7.30
32348;DHT22;18821;44.800;10.326;2023-05-09T01:14:20;17.40;9.10
32348;DHT22;18821;44.800;10.326;2023-05-09T01:22:05;17.30;13.70
32348;DHT22;18821;44.800;10.326;2023-05-09T01:25:01;17.30;16.00
32348;DHT22;18821;44.800;10.326;2023-05-09T01:30:25;17.40;13.20
32348;DHT22;18821;44.800;10.326;2023-05-09T01:32:56;17.40;16.60
32348;DHT22;18821;44.800;10.326;2023-05-09T01:35:26;17.40;16.10
32348;DHT22;18821;44.800;10.326;2023-05-09T01:37:53;17.50;15.20
32348;DHT22;18821;44.800;10.326;2023-05-09T01:40:20;17.50;15.30
32348;DHT22;18821;44.800;10.326;2023-05-09T01:43:03;17.50;14.70
32348;DHT22;18821;44.800;10.326;2023-05-09T01:45:31;17.50;16.60
32348;DHT22;18821;44.800;10.326;2023-05-09T01:47:58;17.50;18.00
32348;DHT22;18821;44.800;10.326;2023-05-09T01:50:25;17.50;20.80
32348;DHT22;18821;44.800;10.326;2023-05-09T01:52:54;17.50;20.90
32348;DHT22;18821;44.800;10.326;2023-05-09T01:55:22;17.60;18.90
32348;DHT22;18821;44.800;10.326;2023-05-09T01:57:51;17.50;18.70
32348;DHT22;18821;44.800;10.326;2023-05-09T02:00:18;17.40;22.90
32348;DHT22;18821;44.800;10.326;2023-05-09T02:02:45;17.40;22.70
32348;DHT22;18821;44.800;10.326;2023-05-09T02:05:11;17.40;24.50
32348;DHT22;18821;44.800;10.326;2023-05-09T02:07:40;17.40;25.00
32348;DHT22;18821;44.800;10.326;2023-05-09T02:10:08;17.50;26.10
32348;DHT22;18821;44.800;10.326;2023-05-09T02:12:36;17.50;25.70
32348;DHT22;18821;44.800;10.326;2023-05-09T02:15:04;17.50;27.50
32348;DHT22;18821;44.800;10.326;2023-05-09T02:17:31;17.50;27.90
32348;DHT22;18821;44.800;10.326;2023-05-09T02:19:57;17.50;28.50
32348;DHT22;18821;44.800;10.326;2023-05-09T02:22:23;17.50;27.90
32348;DHT22;18821;44.800;10.326;2023-05-09T02:24:49;17.50;27.50
32348;DHT22;18821;44.800;10.326;2023-05-09T02:27:16;17.60;28.00
32348;DHT22;18821;44.800;10.326;2023-05-09T02:29:54;17.60;28.10
32348;DHT22;18821;44.800;10.326;2023-05-09T02:32:25;17.60;27.50
32348;DHT22;18821;44.800;10.326;2023-05-09T02:34:52;17.60;27.40
32348;DHT22;18821;44.800;10.326;2023-05-09T02:37:19;17.70;26.40
32348;DHT22;18821;44.800;10.326;2023-05-09T02:39:46;17.70;26.90
32348;DHT22;18821;44.800;10.326;2023-05-09T02:42:16;17.70;24.90
32348;DHT22;18821;44.800;10.326;2023-05-09T02:44:42;17.60;24.40
32348;DHT22;18821;44.800;10.326;2023-05-09T02:47:08;17.60;23.70
32348;DHT22;18821;44.800;10.326;2023-05-09T02:49:34;17.50;23.30
32348;DHT22;18821;44.800;10.326;2023-05-09T02:52:02;17.50;25.60
32348;DHT22;18821;44.800;10.326;2023-05-09T02:54:29;17.40;27.80
32348;DHT22;18821;44.800;10.326;2023-05-09T02:56:55;17.40;27.90
32348;DHT22;18821;44.800;10.326;2023-05-09T02:59:21;17.40;28.80
32348;DHT22;18821;44.800;10.326;2023-05-09T03:01:47;17.40;28.00
32348;DHT22;18821;44.800;10.326;2023-05-09T03:04:14;17.30;28.00
32348;DHT22;18821;44.800;10.326;2023-05-09T03:06:41;17.30;29.90
32348;DHT22;18821;44.800;10.326;2023-05-09T03:09:07;17.40;29.00
32348;DHT22;18821;44.800;10.326;2023-05-09T03:11:34;17.40;29.50
32348;DHT22;18821;44.800;10.326;2023-05-09T03:14:02;17.30;29.40
32348;DHT22;18821;44.800;10.326;2023-05-09T03:16:28;17.30;29.60
32348;DHT22;18821;44.800;10.326;2023-05-09T03:18:54;17.30;27.60
32348;DHT22;18821;44.800;10.326;2023-05-09T03:21:20;17.30;30.40
32348;DHT22;18821;44.800;10.326;2023-05-09T03:23:46;17.30;33.40
32348;DHT22;18821;44.800;10.326;2023-05-09T03:26:12;17.30;34.10
32348;DHT22;18821;44.800;10.326;2023-05-09T03:28:38;17.30;32.00
32348;DHT22;18821;44.800;10.326;2023-05-09T03:31:05;17.30;34.10
32348;DHT22;18821;44.800;10.326;2023-05-09T03:33:31;17.20;34.50
32348;DHT22;18821;44.800;10.326;2023-05-09T03:35:59;17.30;33.90
32348;DHT22;18821;44.800;10.326;2023-05-09T03:38:25;17.30;34.80
32348;DHT22;18821;44.800;10.326;2023-05-09T03:40:54;17.20;31.00
32348;DHT22;18821;44.800;10.326;2023-05-09T03:43:21;17.20;33.50
32348;DHT22;18821;44.800;10.326;2023-05-09T03:45:47;17.20;34.10
32348;DHT22;18821;44.800;10.326;2023-05-09T03:48:14;17.10;31.70
32348;DHT22;18821;44.800;10.326;2023-05-09T03:50:49;17.00;37.50
32348;DHT22;18821;44.800;10.326;2023-05-09T03:53:17;17.00;38.00
32348;DHT22;18821;44.800;10.326;2023-05-09T03:55:46;16.90;32.90
32348;DHT22;18821;44.800;10.326;2023-05-09T03:58:13;16.80;33.00
32348;DHT22;18821;44.800;10.326;2023-05-09T04:00:41;16.70;37.20
32348;DHT22;18821;44.800;10.326;2023-05-09T04:03:13;16.70;38.80
32348;DHT22;18821;44.800;10.326;2023-05-09T04:05:44;16.60;42.50
32348;DHT22;18821;44.800;10.326;2023-05-09T04:08:18;16.60;42.20
32348;DHT22;18821;44.800;10.326;2023-05-09T04:10:44;16.60;39.90
32348;DHT22;18821;44.800;10.326;2023-05-09T04:13:10;16.50;33.10
32348;DHT22;18821;44.800;10.326;2023-05-09T04:15:36;16.50;29.60
32348;DHT22;18821;44.800;10.326;2023-05-09T04:18:02;16.40;24.50
32348;DHT22;18821;44.800;10.326;2023-05-09T04:20:28;16.40;21.40
32348;DHT22;18821;44.800;10.326;2023-05-09T04:22:54;16.40;16.10
32348;DHT22;18821;44.800;10.326;2023-05-09T04:25:20;16.30;14.80
32348;DHT22;18821;44.800;10.326;2023-05-09T04:27:47;16.30;15.40
32348;DHT22;18821;44.800;10.326;2023-05-09T04:30:14;16.30;14.40
32348;DHT22;18821;44.800;10.326;2023-05-09T04:32:43;16.30;13.20
32348;DHT22;18821;44.800;10.326;2023-05-09T04:35:11;16.30;13.60
32348;DHT22;18821;44.800;10.326;2023-05-09T04:37:41;16.30;12.20
32348;DHT22;18821;44.800;10.326;2023-05-09T04:40:08;16.40;11.70
32348;DHT22;18821;44.800;10.326;2023-05-09T04:42:41;16.40;8.80
32348;DHT22;18821;44.800;10.326;2023-05-09T04:45:08;16.50;3.70
32348;DHT22;18821;44.800;10.326;2023-05-09T04:47:37;16.50;3.00
32348;DHT22;18821;44.800;10.326;2023-05-09T04:50:03;16.40;1.70
32348;DHT22;18821;44.800;10.326;2023-05-09T04:52:29;16.40;1.00
32348;DHT22;18821;44.800;10.326;2023-05-09T04:54:55;16.30;1.50
32348;DHT22;18821;44.800;10.326;2023-05-09T04:57:24;16.40;4.90
32348;DHT22;18821;44.800;10.326;2023-05-09T04:59:55;16.40;1.00
32348;DHT22;18821;44.800;10.326;2023-05-09T05:02:21;16.50;1.00
32348;DHT22;18821;44.800;10.326;2023-05-09T05:04:48;16.50;1.00
32348;DHT22;18821;44.800;10.326;2023-05-09T05:07:14;16.60;1.00
32348;DHT22;18821;44.800;10.326;2023-05-09T05:09:42;16.70;1.00
32348;DHT22;18821;44.800;10.326;2023-05-09T05:12:09;16.70;1.00
32348;DHT22;18821;44.800;10.326;2023-05-09T05:14:35;16.70;1.00
32348;DHT22;18821;44.800;10.326;2023-05-09T05:17:02;16.70;1.00
32348;DHT22;18821;44.800;10.326;2023-05-09T05:19:28;16.70;1.00
32348;DHT22;18821;44.800;10.326;2023-05-09T05:21:54;16.70;1.00
32348;DHT22;18821;44.800;10.326;2023-05-09T05:24:22;16.80;1.00
32348;DHT22;18821;44.800;10.326;2023-05-09T05:26:48;16.80;1.00
32348;DHT22;18821;44.800;10.326;2023-05-09T05:29:14;16.70;1.00
32348;DHT22;18821;44.800;10.326;2023-05-09T05:31:40;16.70;1.00
32348;DHT22;18821;44.800;10.326;2023-05-09T05:34:06;16.80;1.00
32348;DHT22;18821;44.800;10.326;2023-05-09T05:36:32;16.70;1.00
32348;DHT22;18821;44.800;10.326;2023-05-09T05:38:58;16.70;1.00
32348;DHT22;18821;44.800;10.326;2023-05-09T05:41:24;16.70;1.00
32348;DHT22;18821;44.800;10.326;2023-05-09T05:43:51;16.70;1.00
32348;DHT22;18821;44.800;10.326;2023-05-09T05:46:17;16.70;1.00
32348;DHT22;18821;44.800;10.326;2023-05-09T05:48:43;16.70;1.00
32348;DHT22;18821;44.800;10.326;2023-05-09T05:51:09;16.80;1.00
32348;DHT22;18821;44.800;10.326;2023-05-09T05:53:35;16.80;1.00
32348;DHT22;18821;44.800;10.326;2023-05-09T05:56:01;16.90;1.00
32348;DHT22;18821;44.800;10.326;2023-05-09T05:58:27;16.90;1.00
32348;DHT22;18821;44.800;10.326;2023-05-09T06:00:53;17.00;1.00
32348;DHT22;18821;44.800;10.326;2023-05-09T06:03:19;17.10;1.00
32348;DHT22;18821;44.800;10.326;2023-05-09T06:05:56;17.10;1.00
32348;DHT22;18821;44.800;10.326;2023-05-09T06:08:22;17.20;1.00
32348;DHT22;18821;44.800;10.326;2023-05-09T06:10:48;17.30;1.00
32348;DHT22;18821;44.800;10.326;2023-05-09T06:13:14;17.30;1.00
32348;DHT22;18821;44.800;10.326;2023-05-09T06:15:46;17.20;1.00
32348;DHT22;18821;44.800;10.326;2023-05-09T06:18:12;17.10;1.00
32348;DHT22;18821;44.800;10.326;2023-05-09T06:20:38;17.10;1.00
32348;DHT22;18821;44.800;10.326;2023-05-09T06:23:04;17.20;1.00
32348;DHT22;18821;44.800;10.326;2023-05-09T06:25:29;17.30;1.00
32348;DHT22;18821;44.800;10.326;2023-05-09T06:27:55;17.40;1.00
32348;DHT22;18821;44.800;10.326;2023-05-09T06:30:21;17.40;1.00
32348;DHT22;18821;44.800;10.326;2023-05-09T06:32:47;17.30;1.00
32348;DHT22;18821;44.800;10.326;2023-05-09T06:35:13;17.40;1.00
32348;DHT22;18821;44.800;10.326;2023-05-09T06:37:40;17.60;1.00
32348;DHT22;18821;44.800;10.326;2023-05-09T06:40:06;17.70;1.00
32348;DHT22;18821;44.800;10.326;2023-05-09T06:42:32;17.80;1.00
32348;DHT22;18821;44.800;10.326;2023-05-09T06:44:58;18.10;1.00
32348;DHT22;18821;44.800;10.326;2023-05-09T06:47:24;18.20;1.00
32348;DHT22;18821;44.800;10.326;2023-05-09T06:49:50;18.30;1.00
32348;DHT22;18821;44.800;10.326;2023-05-09T06:52:16;18.30;1.00
32348;DHT22;18821;44.800;10.326;2023-05-09T06:54:41;18.20;1.00
32348;DHT22;18821;44.800;10.326;2023-05-09T06:57:07;18.00;1.00
32348;DHT22;18821;44.800;10.326;2023-05-09T06:59:33;18.10;1.00
32348;DHT22;18821;44.800;10.326;2023-05-09T07:01:59;18.10;1.00
32348;DHT22;18821;44.800;10.326;2023-05-09T07:04:25;18.10;1.00
32348;DHT22;18821;44.800;10.326;2023-05-09T07:06:51;18.20;1.00
32348;DHT22;18821;44.800;10.326;2023-05-09T07:09:17;18.30;1.00
32348;DHT22;18821;44.800;10.326;2023-05-09T07:11:45;18.40;1.00
32348;DHT22;18821;44.800;10.326;2023-05-09T07:14:11;18.40;1.00
32348;DHT22;18821;44.800;10.326;2023-05-09T07:16:37;18.40;1.00
32348;DHT22;18821;44.800;10.326;2023-05-09T07:19:03;18.40;1.00
32348;DHT22;18821;44.800;10.326;2023-05-09T07:21:29;18.60;1.00
32348;DHT22;18821;44.800;10.326;2023-05-09T07:23:54;18.70;1.00
32348;DHT22;18821;44.800;10.326;2023-05-09T07:26:20;19.00;1.00
32348;DHT22;18821;44.800;10.326;2023-05-09T07:28:46;19.30;1.00
32348;DHT22;18821;44.800;10.326;2023-05-09T07:31:12;19.50;1.00
32348;DHT22;18821;44.800;10.326;2023-05-09T07:33:38;19.60;1.00
32348;DHT22;18821;44.800;10.326;2023-05-09T07:36:04;19.60;1.00
32348;DHT22;18821;44.800;10.326;2023-05-09T07:38:30;19.50;1.00
32348;DHT22;18821;44.800;10.326;2023-05-09T07:40:56;19.40;1.00
32348;DHT22;18821;44.800;10.326;2023-05-09T07:43:21;19.40;1.00
32348;DHT22;18821;44.800;10.326;2023-05-09T07:45:47;19.30;1.00
32348;DHT22;18821;44.800;10.326;2023-05-09T07:48:13;19.40;1.00
32348;DHT22;18821;44.800;10.326;2023-05-09T07:50:39;19.20;1.00
32348;DHT22;18821;44.800;10.326;2023-05-09T07:53:05;19.10;1.00
32348;DHT22;18821;44.800;10.326;2023-05-09T07:55:32;19.20;1.00
32348;DHT22;18821;44.800;10.326;2023-05-09T07:57:58;19.50;1.00
32348;DHT22;18821;44.800;10.326;2023-05-09T08:00:24;19.80;1.00
32348;DHT22;18821;44.800;10.326;2023-05-09T08:02:50;20.00;1.00
32348;DHT22;18821;44.800;10.326;2023-05-09T08:05:17;20.10;1.00
32348;DHT22;18821;44.800;10.326;2023-05-09T08:07:43;20.20;1.00
32348;DHT22;18821;44.800;10.326;2023-05-09T08:10:09;20.30;1.00
32348;DHT22;18821;44.800;10.326;2023-05-09T08:12:35;20.50;1.00
32348;DHT22;18821;44.800;10.326;2023-05-09T08:15:02;20.60;1.00
32348;DHT22;18821;44.800;10.326;2023-05-09T08:17:30;20.60;1.00
32348;DHT22;18821;44.800;10.326;2023-05-09T08:19:56;20.50;1.00
32348;DHT22;18821;44.800;10.326;2023-05-09T08:22:22;20.40;1.00
32348;DHT22;18821;44.800;10.326;2023-05-09T08:24:48;20.50;1.00
32348;DHT22;18821;44.800;10.326;2023-05-09T08:27:13;20.70;1.00
32348;DHT22;18821;44.800;10.326;2023-05-09T08:29:40;20.60;1.00
32348;DHT22;18821;44.800;10.326;2023-05-09T08:32:06;20.40;1.00
32348;DHT22;18821;44.800;10.326;2023-05-09T08:34:33;20.40;1.00
32348;DHT22;18821;44.800;10.326;2023-05-09T08:37:00;20.50;1.00
32348;DHT22;18821;44.800;10.326;2023-05-09T08:39:26;20.50;1.00
32348;DHT22;18821;44.800;10.326;2023-05-09T08:41:59;20.70;1.00
32348;DHT22;18821;44.800;10.326;2023-05-09T08:44:27;20.90;1.00
32348;DHT22;18821;44.800;10.326;2023-05-09T08:47:02;20.90;1.00
32348;DHT22;18821;44.800;10.326;2023-05-09T08:49:28;20.90;1.00
32348;DHT22;18821;44.800;10.326;2023-05-09T08:51:55;21.00;1.00
32348;DHT22;18821;44.800;10.326;2023-05-09T08:54:21;20.80;1.00
32348;DHT22;18821;44.800;10.326;2023-05-09T08:56:48;20.60;1.00
32348;DHT22;18821;44.800;10.326;2023-05-09T08:59:16;20.60;1.00
32348;DHT22;18821;44.800;10.326;2023-05-09T09:01:43;20.70;1.00
32348;DHT22;18821;44.800;10.326;2023-05-09T09:04:09;20.60;1.00
32348;DHT22;18821;44.800;10.326;2023-05-09T09:06:38;20.60;1.00
32348;DHT22;18821;44.800;10.326;2023-05-09T09:09:05;20.70;1.00
32348;DHT22;18821;44.800;10.326;2023-05-09T09:11:32;21.00;1.00
32348;DHT22;18821;44.800;10.326;2023-05-09T09:14:14;21.00;1.00
32348;DHT22;18821;44.800;10.326;2023-05-09T09:16:43;21.10;1.00
32348;DHT22;18821;44.800;10.326;2023-05-09T09:19:12;21.30;1.00
32348;DHT22;18821;44.800;10.326;2023-05-09T09:21:44;21.30;1.00
32348;DHT22;18821;44.800;10.326;2023-05-09T09:24:12;21.20;99.90
32348;DHT22;18821;44.800;10.326;2023-05-09T09:26:47;20.90;1.00
32348;DHT22;18821;44.800;10.326;2023-05-09T09:29:13;20.90;1.00
32348;DHT22;18821;44.800;10.326;2023-05-09T09:31:43;20.90;1.00
32348;DHT22;18821;44.800;10.326;2023-05-09T09:34:09;21.20;1.00
32348;DHT22;18821;44.800;10.326;2023-05-09T09:36:35;21.40;1.00
32348;DHT22;18821;44.800;10.326;2023-05-09T09:39:03;21.60;99.90
32348;DHT22;18821;44.800;10.326;2023-05-09T09:41:33;21.70;99.90
32348;DHT22;18821;44.800;10.326;2023-05-09T09:44:06;21.80;99.90
32348;DHT22;18821;44.800;10.326;2023-05-09T09:46:51;21.70;99.90
32348;DHT22;18821;44.800;10.326;2023-05-09T09:49:19;21.80;99.90
32348;DHT22;18821;44.800;10.326;2023-05-09T09:51:50;21.90;99.90
32348;DHT22;18821;44.800;10.326;2023-05-09T09:54:16;21.80;99.90
32348;DHT22;18821;44.800;10.326;2023-05-09T09:56:49;21.80;99.90
32348;DHT22;18821;44.800;10.326;2023-05-09T09:59:20;21.70;99.90
32348;DHT22;18821;44.800;10.326;2023-05-09T10:02:02;21.80;99.90
32348;DHT22;18821;44.800;10.326;2023-05-09T10:04:31;21.80;99.90
32348;DHT22;18821;44.800;10.326;2023-05-09T10:07:01;22.10;99.90
32348;DHT22;18821;44.800;10.326;2023-05-09T10:09:39;22.00;99.90
32348;DHT22;18821;44.800;10.326;2023-05-09T10:12:25;22.00;99.90
32348;DHT22;18821;44.800;10.326;2023-05-09T10:15:21;21.90;99.90
32348;DHT22;18821;44.800;10.326;2023-05-09T10:17:55;21.80;99.90
32348;DHT22;18821;44.800;10.326;2023-05-09T10:20:21;21.70;99.90
32348;DHT22;18821;44.800;10.326;2023-05-09T10:22:49;21.90;99.90
32348;DHT22;18821;44.800;10.326;2023-05-09T10:25:19;21.90;99.90
32348;DHT22;18821;44.800;10.326;2023-05-09T10:27:46;22.10;99.90
32348;DHT22;18821;44.800;10.326;2023-05-09T10:33:07;22.20;99.90
32348;DHT22;18821;44.800;10.326;2023-05-09T10:35:36;22.30;51.10
32348;DHT22;18821;44.800;10.326;2023-05-09T10:38:06;22.20;7.50
32348;DHT22;18821;44.800;10.326;2023-05-09T10:40:33;22.20;1.00
32348;DHT22;18821;44.800;10.326;2023-05-09T10:42:59;22.40;1.00
32348;DHT22;18821;44.800;10.326;2023-05-09T10:45:25;22.40;1.00
32348;DHT22;18821;44.800;10.326;2023-05-09T10:47:52;22.20;74.10
32348;DHT22;18821;44.800;10.326;2023-05-09T10:50:21;22.40;41.10
32348;DHT22;18821;44.800;10.326;2023-05-09T11:00:49;23.10;99.90
32348;DHT22;18821;44.800;10.326;2023-05-09T11:03:15;23.00;99.90
32348;DHT22;18821;44.800;10.326;2023-05-09T11:05:46;22.90;99.90
32348;DHT22;18821;44.800;10.326;2023-05-09T11:08:29;22.90;99.90
32348;DHT22;18821;44.800;10.326;2023-05-09T11:10:57;23.00;99.90
32348;DHT22;18821;44.800;10.326;2023-05-09T11:13:30;23.20;99.90
32348;DHT22;18821;44.800;10.326;2023-05-09T11:18:25;23.30;12.10
32348;DHT22;18821;44.800;10.326;2023-05-09T11:20:51;23.10;99.90
32348;DHT22;18821;44.800;10.326;2023-05-09T11:23:25;22.60;99.90
32348;DHT22;18821;44.800;10.326;2023-05-09T11:25:51;22.80;99.90
32348;DHT22;18821;44.800;10.326;2023-05-09T11:30:54;23.20;1.00
32348;DHT22;18821;44.800;10.326;2023-05-09T11:33:35;23.40;1.00
32348;DHT22;18821;44.800;10.326;2023-05-09T11:39:07;23.70;1.00
32348;DHT22;18821;44.800;10.326;2023-05-09T11:41:56;23.70;1.00
32348;DHT22;18821;44.800;10.326;2023-05-09T11:44:23;23.70;11.20
32348;DHT22;18821;44.800;10.326;2023-05-09T11:46:49;23.70;24.70
32348;DHT22;18821;44.800;10.326;2023-05-09T11:49:15;23.50;99.90
32348;DHT22;18821;44.800;10.326;2023-05-09T11:51:41;23.70;99.90
32348;DHT22;18821;44.800;10.326;2023-05-09T11:54:08;23.60;1.00
32348;DHT22;18821;44.800;10.326;2023-05-09T11:56:37;23.60;1.00
32348;DHT22;18821;44.800;10.326;2023-05-09T11:59:05;23.50;99.90
32348;DHT22;18821;44.800;10.326;2023-05-09T12:01:31;23.60;99.90
32348;DHT22;18821;44.800;10.326;2023-05-09T12:03:57;23.60;99.90
32348;DHT22;18821;44.800;10.326;2023-05-09T12:06:24;23.70;99.90
32348;DHT22;18821;44.800;10.326;2023-05-09T12:08:55;23.70;1.00
32348;DHT22;18821;44.800;10.326;2023-05-09T12:11:23;23.60;1.00
32348;DHT22;18821;44.800;10.326;2023-05-09T12:13:51;23.70;92.10
32348;DHT22;18821;44.800;10.326;2023-05-09T12:16:18;23.90;1.00
32348;DHT22;18821;44.800;10.326;2023-05-09T12:18:46;23.70;99.90
32348;DHT22;18821;44.800;10.326;2023-05-09T12:21:12;23.80;99.90
32348;DHT22;18821;44.800;10.326;2023-05-09T12:23:38;23.80;99.90
32348;DHT22;18821;44.800;10.326;2023-05-09T12:26:04;23.70;99.90
32348;DHT22;18821;44.800;10.326;2023-05-09T12:28:30;23.60;99.90
32348;DHT22;18821;44.800;10.326;2023-05-09T12:30:57;23.70;1.00
32348;DHT22;18821;44.800;10.326;2023-05-09T12:33:24;23.80;51.80
32348;DHT22;18821;44.800;10.326;2023-05-09T12:36:02;23.90;99.90
32348;DHT22;18821;44.800;10.326;2023-05-09T12:38:28;23.40;99.90
32348;DHT22;18821;44.800;10.326;2023-05-09T12:41:05;23.30;99.90
32348;DHT22;18821;44.800;10.326;2023-05-09T12:43:33;23.40;1.00
32348;DHT22;18821;44.800;10.326;2023-05-09T12:46:00;23.50;99.90
32348;DHT22;18821;44.800;10.326;2023-05-09T12:48:27;23.70;1.00
32348;DHT22;18821;44.800;10.326;2023-05-09T12:50:53;23.70;99.90
32348;DHT22;18821;44.800;10.326;2023-05-09T12:53:24;23.90;99.90
32348;DHT22;18821;44.800;10.326;2023-05-09T12:55:54;24.00;1.00
32348;DHT22;18821;44.800;10.326;2023-05-09T12:58:20;24.20;99.90
32348;DHT22;18821;44.800;10.326;2023-05-09T13:00:46;24.20;99.90
32348;DHT22;18821;44.800;10.326;2023-05-09T13:03:26;24.60;99.90
32348;DHT22;18821;44.800;10.326;2023-05-09T13:06:00;24.80;1.00
32348;DHT22;18821;44.800;10.326;2023-05-09T13:08:27;24.10;99.90
32348;DHT22;18821;44.800;10.326;2023-05-09T13:10:53;23.70;72.50
32348;DHT22;18821;44.800;10.326;2023-05-09T13:13:20;23.50;16.00
32348;DHT22;18821;44.800;10.326;2023-05-09T13:15:47;23.80;1.00
32348;DHT22;18821;44.800;10.326;2023-05-09T13:18:13;24.10;1.00
32348;DHT22;18821;44.800;10.326;2023-05-09T13:20:39;24.00;99.90
32348;DHT22;18821;44.800;10.326;2023-05-09T13:23:05;23.60;1.00
32348;DHT22;18821;44.800;10.326;2023-05-09T13:25:31;23.90;1.00
32348;DHT22;18821;44.800;10.326;2023-05-09T13:27:57;24.20;99.90
32348;DHT22;18821;44.800;10.326;2023-05-09T13:30:23;24.20;99.90
32348;DHT22;18821;44.800;10.326;2023-05-09T13:32:49;24.50;99.90
32348;DHT22;18821;44.800;10.326;2023-05-09T13:35:16;24.30;1.00
32348;DHT22;18821;44.800;10.326;2023-05-09T13:37:42;23.80;71.50
32348;DHT22;18821;44.800;10.326;2023-05-09T13:40:09;23.60;99.90
32348;DHT22;18821;44.800;10.326;2023-05-09T13:42:35;23.80;99.90
32348;DHT22;18821;44.800;10.326;2023-05-09T13:45:01;24.00;99.90
32348;DHT22;18821;44.800;10.326;2023-05-09T13:47:28;24.20;1.00
32348;DHT22;18821;44.800;10.326;2023-05-09T13:49:53;24.40;1.00
32348;DHT22;18821;44.800;10.326;2023-05-09T13:52:19;24.60;99.90
32348;DHT22;18821;44.800;10.326;2023-05-09T13:54:45;24.70;1.00
32348;DHT22;18821;44.800;10.326;2023-05-09T13:57:11;24.60;99.90
32348;DHT22;18821;44.800;10.326;2023-05-09T13:59:37;24.70;1.00
32348;DHT22;18821;44.800;10.326;2023-05-09T14:02:06;24.70;1.00
32348;DHT22;18821;44.800;10.326;2023-05-09T14:04:32;24.80;99.90
32348;DHT22;18821;44.800;10.326;2023-05-09T14:06:59;24.70;99.90
32348;DHT22;18821;44.800;10.326;2023-05-09T14:09:26;24.60;99.90
32348;DHT22;18821;44.800;10.326;2023-05-09T14:11:53;24.70;99.90
32348;DHT22;18821;44.800;10.326;2023-05-09T14:14:23;24.60;99.90
32348;DHT22;18821;44.800;10.326;2023-05-09T14:16:50;24.60;99.90
32348;DHT22;18821;44.800;10.326;2023-05-09T14:19:16;24.70;99.90
32348;DHT22;18821;44.800;10.326;2023-05-09T14:21:43;24.50;99.90
32348;DHT22;18821;44.800;10.326;2023-05-09T14:24:11;24.40;99.90
32348;DHT22;18821;44.800;10.326;2023-05-09T14:26:38;24.40;99.90
32348;DHT22;18821;44.800;10.326;2023-05-09T14:29:04;24.40;99.90
32348;DHT22;18821;44.800;10.326;2023-05-09T14:31:31;24.30;99.90
32348;DHT22;18821;44.800;10.326;2023-05-09T14:33:58;24.40;99.90
32348;DHT22;18821;44.800;10.326;2023-05-09T14:36:25;24.50;99.90
32348;DHT22;18821;44.800;10.326;2023-05-09T14:38:52;24.60;99.90
32348;DHT22;18821;44.800;10.326;2023-05-09T14:41:18;24.10;99.90
32348;DHT22;18821;44.800;10.326;2023-05-09T14:43:44;24.00;99.90
32348;DHT22;18821;44.800;10.326;2023-05-09T14:46:10;24.00;99.90
32348;DHT22;18821;44.800;10.326;2023-05-09T14:48:35;23.80;99.90
32348;DHT22;18821;44.800;10.326;2023-05-09T14:51:01;23.80;1.00
32348;DHT22;18821;44.800;10.326;2023-05-09T14:53:27;23.80;1.00
32348;DHT22;18821;44.800;10.326;2023-05-09T14:55:54;23.80;1.00
32348;DHT22;18821;44.800;10.326;2023-05-09T14:58:21;23.80;1.00
32348;DHT22;18821;44.800;10.326;2023-05-09T15:00:47;23.60;99.90
32348;DHT22;18821;44.800;10.326;2023-05-09T15:03:14;23.50;99.90
32348;DHT22;18821;44.800;10.326;2023-05-09T15:05:40;23.40;99.90
32348;DHT22;18821;44.800;10.326;2023-05-09T15:08:07;23.30;99.90
32348;DHT22;18821;44.800;10.326;2023-05-09T15:10:33;23.20;1.00
32348;DHT22;18821;44.800;10.326;2023-05-09T15:12:59;23.20;1.00
32348;DHT22;18821;44.800;10.326;2023-05-09T15:15:25;23.20;99.90
32348;DHT22;18821;44.800;10.326;2023-05-09T15:17:52;23.10;99.90
32348;DHT22;18821;44.800;10.326;2023-05-09T15:20:19;23.00;65.30
32348;DHT22;18821;44.800;10.326;2023-05-09T15:22:46;22.90;99.90
32348;DHT22;18821;44.800;10.326;2023-05-09T15:25:12;22.90;99.90
32348;DHT22;18821;44.800;10.326;2023-05-09T15:27:38;22.80;1.00
32348;DHT22;18821;44.800;10.326;2023-05-09T15:30:05;22.70;99.30
32348;DHT22;18821;44.800;10.326;2023-05-09T15:32:31;22.60;99.90
32348;DHT22;18821;44.800;10.326;2023-05-09T15:34:57;22.40;1.00
32348;DHT22;18821;44.800;10.326;2023-05-09T15:37:23;22.40;99.90
32348;DHT22;18821;44.800;10.326;2023-05-09T15:39:48;22.30;1.00
32348;DHT22;18821;44.800;10.326;2023-05-09T15:42:15;22.30;99.90
32348;DHT22;18821;44.800;10.326;2023-05-09T15:44:41;22.20;99.90
32348;DHT22;18821;44.800;10.326;2023-05-09T15:47:08;22.20;99.90
32348;DHT22;18821;44.800;10.326;2023-05-09T15:49:34;22.10;1.00
32348;DHT22;18821;44.800;10.326;2023-05-09T15:52:04;22.10;1.00
32348;DHT22;18821;44.800;10.326;2023-05-09T15:54:31;22.10;99.90
32348;DHT22;18821;44.800;10.326;2023-05-09T15:56:57;22.00;1.00